createdAt,value
2023-04-30T00:00:36.258Z,100813.34
2023-04-30T00:03:04.576Z,100809.78
2023-04-30T00:05:32.693Z,100809.94
2023-04-30T00:08:00.544Z,100808.34
2023-04-30T00:10:28.335Z,100816.50
2023-04-30T00:12:57.082Z,100814.81
2023-04-30T00:15:24.942Z,100818.53
2023-04-30T00:17:53.377Z,100810.63
2023-04-30T00:20:21.178Z,100819.56
2023-04-30T00:22:48.892Z,100818.63
2023-04-30T00:25:16.881Z,100824.00
2023-04-30T00:27:44.587Z,100824.06
2023-04-30T00:30:12.886Z,100817.97
2023-04-30T00:32:42.034Z,100814.41
2023-04-30T00:35:10.320Z,100837.56
2023-04-30T00:37:38.368Z,100828.78
2023-04-30T00:40:07.127Z,100835.88
2023-04-30T00:42:34.872Z,100836.94
2023-04-30T00:45:02.849Z,100828.06
2023-04-30T00:47:32.122Z,100822.06
2023-04-30T00:50:00.517Z,100831.03
2023-04-30T00:52:28.327Z,100825.78
2023-04-30T00:54:56.557Z,100825.06
2023-04-30T00:57:25.057Z,100819.88
2023-04-30T00:59:53.648Z,100825.28
2023-04-30T01:02:22.742Z,100828.78
2023-04-30T01:04:51.950Z,100825.38
2023-04-30T01:07:20.007Z,100818.50
2023-04-30T01:09:48.117Z,100831.69
2023-04-30T01:12:56.728Z,100812.28
2023-04-30T01:15:51.819Z,100811.41
2023-04-30T01:18:31.620Z,100804.59
2023-04-30T01:21:06.485Z,100811.69
2023-04-30T01:24:06.600Z,100815.34
2023-04-30T01:26:59.702Z,100811.06
2023-04-30T01:29:29.347Z,100816.66
2023-04-30T01:31:57.240Z,100811.38
2023-04-30T01:34:25.150Z,100809.56
2023-04-30T01:36:56.348Z,100806.00
2023-04-30T01:40:06.951Z,100808.69
2023-04-30T01:43:09.532Z,100802.59
2023-04-30T01:46:29.667Z,100801.91
2023-04-30T01:49:39.266Z,100800.94
2023-04-30T01:52:20.777Z,100808.13
2023-04-30T01:55:28.667Z,100808.34
2023-04-30T01:58:00.057Z,100810.22
2023-04-30T02:00:32.760Z,100804.00
2023-04-30T02:03:00.758Z,100802.41
2023-04-30T02:05:28.870Z,100802.25
2023-04-30T02:07:57.018Z,100803.13
2023-04-30T02:10:26.695Z,100804.00
2023-04-30T02:12:54.487Z,100810.22
2023-04-30T02:15:22.423Z,100809.44
2023-04-30T02:17:50.318Z,100812.19
2023-04-30T02:20:18.604Z,100811.34
2023-04-30T02:22:46.731Z,100801.66
2023-04-30T02:25:14.585Z,100805.97
2023-04-30T02:27:42.277Z,100808.66
2023-04-30T02:30:11.086Z,100804.19
2023-04-30T02:32:38.817Z,100806.84
2023-04-30T02:35:06.879Z,100805.22
2023-04-30T02:37:34.613Z,100806.16
2023-04-30T02:40:02.416Z,100801.66
2023-04-30T02:42:30.324Z,100807.91
2023-04-30T02:44:57.978Z,100808.91
2023-04-30T02:47:26.009Z,100808.84
2023-04-30T02:49:53.804Z,100809.72
2023-04-30T02:52:21.683Z,100804.47
2023-04-30T02:54:49.712Z,100806.06
2023-04-30T02:57:17.506Z,100808.84
2023-04-30T02:59:46.298Z,100806.38
2023-04-30T03:02:14.282Z,100815.22
2023-04-30T03:04:42.066Z,100803.75
2023-04-30T03:07:09.803Z,100801.16
2023-04-30T03:09:37.680Z,100813.69
2023-04-30T03:12:06.121Z,100819.91
2023-04-30T03:14:34.021Z,100814.56
2023-04-30T03:17:01.733Z,100813.59
2023-04-30T03:19:29.823Z,100807.56
2023-04-30T03:21:57.655Z,100803.19
2023-04-30T03:24:25.497Z,100800.63
2023-04-30T03:26:53.258Z,100800.59
2023-04-30T03:29:20.972Z,100804.19
2023-04-30T03:31:48.804Z,100802.31
2023-04-30T03:34:16.550Z,100788.41
2023-04-30T03:36:44.241Z,100804.28
2023-04-30T03:39:12.031Z,100804.28
2023-04-30T03:41:39.743Z,100794.63
2023-04-30T03:44:14.807Z,100791.94
2023-04-30T03:46:45.834Z,100789.34
2023-04-30T03:49:13.609Z,100790.38
2023-04-30T03:51:41.949Z,100784.13
2023-04-30T03:54:10.287Z,100791.38
2023-04-30T03:56:38.473Z,100793.28
2023-04-30T03:59:06.616Z,100788.84
2023-04-30T04:01:34.557Z,100778.41
2023-04-30T04:04:02.663Z,100787.31
2023-04-30T04:06:32.255Z,100792.84
2023-04-30T04:09:00.237Z,100795.44
2023-04-30T04:11:27.952Z,100789.44
2023-04-30T04:13:56.837Z,100788.56
2023-04-30T04:16:24.651Z,100796.53
2023-04-30T04:18:52.720Z,100790.59
2023-04-30T04:21:21.382Z,100785.38
2023-04-30T04:23:49.140Z,100800.44
2023-04-30T04:26:19.602Z,100792.63
2023-04-30T04:28:48.089Z,100815.47
2023-04-30T04:31:15.990Z,100815.56
2023-04-30T04:33:44.584Z,100807.44
2023-04-30T04:36:12.352Z,100806.59
2023-04-30T04:38:43.700Z,100810.22
2023-04-30T04:41:11.418Z,100821.78
2023-04-30T04:43:39.521Z,100818.16
2023-04-30T04:46:09.636Z,100809.19
2023-04-30T04:48:38.443Z,100814.53
2023-04-30T04:51:06.263Z,100807.44
2023-04-30T04:53:34.964Z,100804.97
2023-04-30T04:56:03.323Z,100825.13
2023-04-30T04:58:31.657Z,100818.03
2023-04-30T05:01:00.161Z,100822.44
2023-04-30T05:03:28.860Z,100808.28
2023-04-30T05:05:57.163Z,100817.97
2023-04-30T05:08:24.994Z,100820.56
2023-04-30T05:10:53.404Z,100818.78
2023-04-30T05:13:21.264Z,100819.63
2023-04-30T05:15:53.619Z,100809.91
2023-04-30T05:18:21.562Z,100809.91
2023-04-30T05:20:49.430Z,100815.81
2023-04-30T05:23:17.082Z,100813.03
2023-04-30T05:25:45.553Z,100823.63
2023-04-30T05:28:13.224Z,100819.91
2023-04-30T05:30:40.978Z,100815.38
2023-04-30T05:33:08.773Z,100820.50
2023-04-30T05:35:36.491Z,100820.34
2023-04-30T05:38:04.272Z,100810.66
2023-04-30T05:40:32.726Z,100822.81
2023-04-30T05:43:00.621Z,100819.19
2023-04-30T05:45:28.354Z,100806.94
2023-04-30T05:47:56.025Z,100820.06
2023-04-30T05:50:23.758Z,100827.88
2023-04-30T05:52:51.659Z,100823.38
2023-04-30T05:55:19.370Z,100807.59
2023-04-30T05:57:47.178Z,100823.47
2023-04-30T06:00:16.178Z,100826.00
2023-04-30T06:02:43.956Z,100812.81
2023-04-30T06:05:12.887Z,100818.91
2023-04-30T06:07:42.378Z,100822.38
2023-04-30T06:10:10.625Z,100816.72
2023-04-30T06:12:39.443Z,100820.16
2023-04-30T06:15:08.044Z,100816.31
2023-04-30T06:17:35.987Z,100827.59
2023-04-30T06:20:07.111Z,100837.19
2023-04-30T06:22:35.067Z,100821.00
2023-04-30T06:25:03.510Z,100827.78
2023-04-30T06:27:38.718Z,100815.66
2023-04-30T06:30:07.415Z,100831.31
2023-04-30T06:32:35.335Z,100825.56
2023-04-30T06:35:03.137Z,100830.53
2023-04-30T06:37:35.844Z,100825.00
2023-04-30T06:40:08.515Z,100822.72
2023-04-30T06:42:36.301Z,100831.50
2023-04-30T06:45:06.709Z,100822.16
2023-04-30T06:47:37.846Z,100832.47
2023-04-30T06:50:06.308Z,100825.66
2023-04-30T06:52:34.539Z,100827.00
2023-04-30T06:55:02.569Z,100831.66
2023-04-30T06:57:31.139Z,100831.94
2023-04-30T06:59:59.091Z,100816.53
2023-04-30T07:02:27.635Z,100823.28
2023-04-30T07:04:55.491Z,100822.25
2023-04-30T07:07:23.415Z,100824.16
2023-04-30T07:09:52.131Z,100830.09
2023-04-30T07:12:21.479Z,100820.72
2023-04-30T07:14:49.196Z,100817.72
2023-04-30T07:17:17.058Z,100829.00
2023-04-30T07:19:44.797Z,100809.38
2023-04-30T07:22:12.516Z,100816.25
2023-04-30T07:24:40.290Z,100827.91
2023-04-30T07:27:07.952Z,100813.28
2023-04-30T07:29:36.075Z,100816.78
2023-04-30T07:32:04.126Z,100821.28
2023-04-30T07:34:32.313Z,100818.34
2023-04-30T07:37:00.105Z,100818.34
2023-04-30T07:39:28.110Z,100820.06
2023-04-30T07:41:55.893Z,100808.44
2023-04-30T07:44:23.647Z,100815.47
2023-04-30T07:46:51.680Z,100809.72
2023-04-30T07:49:19.446Z,100820.06
2023-04-30T07:51:47.335Z,100811.03
2023-04-30T07:54:15.389Z,100802.88
2023-04-30T07:56:43.296Z,100810.69
2023-04-30T07:59:11.011Z,100802.72
2023-04-30T08:01:38.748Z,100809.81
2023-04-30T08:04:07.458Z,100813.31
2023-04-30T08:06:35.387Z,100803.47
2023-04-30T08:09:03.778Z,100812.25
2023-04-30T08:11:31.691Z,100800.25
2023-04-30T08:13:59.457Z,100798.44
2023-04-30T08:16:27.219Z,100801.91
2023-04-30T08:18:55.166Z,100803.53
2023-04-30T08:21:22.945Z,100803.28
2023-04-30T08:23:50.705Z,100802.16
2023-04-30T08:26:18.463Z,100809.78
2023-04-30T08:28:46.294Z,100813.75
2023-04-30T08:31:14.144Z,100816.75
2023-04-30T08:33:41.921Z,100805.81
2023-04-30T08:36:09.613Z,100804.34
2023-04-30T08:38:38.849Z,100813.88
2023-04-30T08:41:13.806Z,100816.88
2023-04-30T08:43:44.639Z,100815.56
2023-04-30T08:46:13.866Z,100812.59
2023-04-30T08:48:42.089Z,100821.16
2023-04-30T08:51:09.872Z,100806.88
2023-04-30T08:53:38.417Z,100800.28
2023-04-30T08:56:06.685Z,100816.91
2023-04-30T08:58:34.428Z,100806.53
2023-04-30T09:01:03.441Z,100818.47
2023-04-30T09:03:31.997Z,100805.56
2023-04-30T09:05:59.808Z,100797.50
2023-04-30T09:08:49.460Z,100797.56
2023-04-30T09:11:31.498Z,100792.66
2023-04-30T09:14:02.139Z,100800.97
2023-04-30T09:16:46.223Z,100795.19
2023-04-30T09:19:29.861Z,100788.06
2023-04-30T09:21:57.822Z,100806.34
2023-04-30T09:24:25.699Z,100798.81
2023-04-30T09:26:54.233Z,100802.47
2023-04-30T09:29:22.024Z,100797.72
2023-04-30T09:31:49.814Z,100790.47
2023-04-30T09:34:17.559Z,100787.47
2023-04-30T09:36:55.824Z,100797.91
2023-04-30T09:39:24.029Z,100793.56
2023-04-30T09:41:52.265Z,100791.97
2023-04-30T09:44:32.451Z,100805.94
2023-04-30T09:47:00.421Z,100811.13
2023-04-30T09:49:28.283Z,100803.59
2023-04-30T09:52:01.428Z,100797.44
2023-04-30T09:54:31.822Z,100795.72
2023-04-30T09:57:02.281Z,100797.75
2023-04-30T09:59:39.546Z,100797.84
2023-04-30T10:02:09.062Z,100792.34
2023-04-30T10:04:40.971Z,100785.78
2023-04-30T10:07:22.668Z,100798.59
2023-04-30T10:10:09.080Z,100793.84
2023-04-30T10:12:45.011Z,100786.63
2023-04-30T10:15:17.704Z,100794.09
2023-04-30T10:17:56.648Z,100796.69
2023-04-30T10:20:26.379Z,100797.16
2023-04-30T10:22:54.384Z,100795.97
2023-04-30T10:25:23.482Z,100790.16
2023-04-30T10:27:51.964Z,100794.47
2023-04-30T10:30:21.447Z,100790.03
2023-04-30T10:33:26.185Z,100777.63
2023-04-30T10:35:58.914Z,100787.56
2023-04-30T10:38:32.620Z,100785.50
2023-04-30T10:41:01.883Z,100769.72
2023-04-30T10:43:35.366Z,100784.97
2023-04-30T10:46:04.063Z,100772.22
2023-04-30T10:48:35.516Z,100767.03
2023-04-30T10:51:03.791Z,100767.13
2023-04-30T10:53:32.314Z,100762.41
2023-04-30T10:56:06.680Z,100751.81
2023-04-30T10:58:39.449Z,100747.28
2023-04-30T11:01:17.820Z,100757.97
2023-04-30T11:04:25.076Z,100745.97
2023-04-30T11:06:52.710Z,100748.97
2023-04-30T11:09:48.611Z,100758.19
2023-04-30T11:12:28.523Z,100749.28
2023-04-30T11:15:19.999Z,100745.19
2023-04-30T11:17:51.587Z,100752.09
2023-04-30T11:20:22.783Z,100727.88
2023-04-30T11:23:19.532Z,100734.13
2023-04-30T11:26:01.003Z,100739.28
2023-04-30T11:28:30.959Z,100733.53
2023-04-30T11:31:00.354Z,100722.38
2023-04-30T11:33:30.563Z,100721.94
2023-04-30T11:36:00.591Z,100728.81
2023-04-30T11:38:35.296Z,100728.72
2023-04-30T11:41:04.725Z,100724.91
2023-04-30T11:43:34.388Z,100726.44
2023-04-30T11:46:11.756Z,100732.16
2023-04-30T11:48:46.264Z,100727.50
2023-04-30T11:51:25.068Z,100723.34
2023-04-30T11:53:53.769Z,100725.81
2023-04-30T11:56:26.098Z,100731.00
2023-04-30T11:58:57.577Z,100729.38
2023-04-30T12:01:28.644Z,100717.56
2023-04-30T12:03:57.540Z,100714.34
2023-04-30T12:06:28.334Z,100708.84
2023-04-30T12:08:58.428Z,100697.19
2023-04-30T12:11:29.515Z,100709.19
2023-04-30T12:14:12.813Z,100707.13
2023-04-30T12:16:45.965Z,100727.31
2023-04-30T12:19:14.001Z,100712.78
2023-04-30T12:21:47.330Z,100694.69
2023-04-30T12:24:19.610Z,100706.16
2023-04-30T12:26:48.081Z,100714.41
2023-04-30T12:29:18.103Z,100696.53
2023-04-30T12:31:49.697Z,100704.69
2023-04-30T12:34:18.505Z,100709.25
2023-04-30T12:36:46.412Z,100706.56
2023-04-30T12:39:16.314Z,100693.53
2023-04-30T12:41:47.170Z,100695.28
2023-04-30T12:44:23.704Z,100699.34
2023-04-30T12:46:56.145Z,100711.19
2023-04-30T12:49:29.089Z,100683.13
2023-04-30T12:52:15.516Z,100682.75
2023-04-30T12:54:43.713Z,100695.00
2023-04-30T12:57:13.046Z,100689.50
2023-04-30T13:00:00.931Z,100689.38
2023-04-30T13:02:31.924Z,100666.09
2023-04-30T13:05:00.030Z,100678.19
2023-04-30T13:07:39.541Z,100664.16
2023-04-30T13:10:13.924Z,100679.31
2023-04-30T13:12:49.018Z,100667.34
2023-04-30T13:15:17.870Z,100662.78
2023-04-30T13:17:45.738Z,100659.09
2023-04-30T13:20:15.704Z,100664.88
2023-04-30T13:22:43.369Z,100646.38
2023-04-30T13:25:11.106Z,100658.13
2023-04-30T13:27:39.711Z,100650.63
2023-04-30T13:30:09.852Z,100654.13
2023-04-30T13:32:37.563Z,100658.69
2023-04-30T13:35:06.178Z,100650.56
2023-04-30T13:37:35.678Z,100659.91
2023-04-30T13:40:04.049Z,100652.09
2023-04-30T13:42:31.885Z,100653.19
2023-04-30T13:44:59.572Z,100636.59
2023-04-30T13:47:27.359Z,100636.81
2023-04-30T13:49:55.258Z,100636.44
2023-04-30T13:52:23.202Z,100637.19
2023-04-30T13:54:52.355Z,100637.81
2023-04-30T13:57:20.136Z,100628.84
2023-04-30T13:59:48.013Z,100621.44
2023-04-30T14:02:15.999Z,100622.72
2023-04-30T14:04:51.738Z,100620.88
2023-04-30T14:07:26.163Z,100612.63
2023-04-30T14:09:54.057Z,100610.53
2023-04-30T14:12:24.015Z,100610.41
2023-04-30T14:14:52.587Z,100605.63
2023-04-30T14:17:20.609Z,100601.06
2023-04-30T14:19:48.477Z,100601.44
2023-04-30T14:22:16.978Z,100597.66
2023-04-30T14:24:44.737Z,100604.50
2023-04-30T14:27:12.477Z,100615.72
2023-04-30T14:29:40.206Z,100601.91
2023-04-30T14:32:08.009Z,100595.16
2023-04-30T14:34:35.821Z,100602.28
2023-04-30T14:37:04.074Z,100606.06
2023-04-30T14:39:31.919Z,100597.56
2023-04-30T14:41:59.750Z,100591.78
2023-04-30T14:44:27.536Z,100578.91
2023-04-30T14:46:55.442Z,100579.34
2023-04-30T14:49:23.139Z,100579.34
2023-04-30T14:51:50.862Z,100566.44
2023-04-30T14:54:18.688Z,100568.41
2023-04-30T14:56:47.228Z,100568.50
2023-04-30T14:59:15.395Z,100559.19
2023-04-30T15:01:43.173Z,100553.13
2023-04-30T15:04:10.953Z,100561.03
2023-04-30T15:06:38.938Z,100569.50
2023-04-30T15:09:06.999Z,100568.75
2023-04-30T15:11:34.707Z,100561.50
2023-04-30T15:14:02.500Z,100554.69
2023-04-30T15:16:30.344Z,100550.50
2023-04-30T15:18:58.997Z,100553.50
2023-04-30T15:21:28.879Z,100569.63
2023-04-30T15:23:56.637Z,100569.50
2023-04-30T15:26:25.876Z,100548.97
2023-04-30T15:28:54.929Z,100541.72
2023-04-30T15:31:37.138Z,100539.00
2023-04-30T15:34:56.031Z,100549.16
2023-04-30T15:38:17.081Z,100532.28
2023-04-30T15:41:38.063Z,100533.06
2023-04-30T15:44:59.112Z,100531.31
2023-04-30T15:48:20.072Z,100528.00
2023-04-30T15:51:21.369Z,100525.28
2023-04-30T15:54:11.294Z,100523.31
2023-04-30T15:56:39.682Z,100513.22
2023-04-30T15:59:07.711Z,100519.53
2023-04-30T16:01:35.430Z,100513.97
2023-04-30T16:04:03.948Z,100510.50
2023-04-30T16:06:32.597Z,100512.34
2023-04-30T16:09:01.895Z,100514.84
2023-04-30T16:11:30.622Z,100516.38
2023-04-30T16:13:58.610Z,100503.81
2023-04-30T16:16:28.113Z,100507.38
2023-04-30T16:18:56.065Z,100517.94
2023-04-30T16:21:24.481Z,100506.03
2023-04-30T16:23:52.826Z,100498.41
2023-04-30T16:26:20.779Z,100500.00
2023-04-30T16:28:48.512Z,100490.28
2023-04-30T16:31:16.901Z,100495.91
2023-04-30T16:33:44.710Z,100489.25
2023-04-30T16:36:12.456Z,100487.50
2023-04-30T16:38:40.277Z,100489.13
2023-04-30T16:41:08.106Z,100488.28
2023-04-30T16:43:35.912Z,100488.28
2023-04-30T16:46:18.134Z,100462.06
2023-04-30T16:49:04.548Z,100465.13
2023-04-30T16:51:32.853Z,100475.44
2023-04-30T16:54:00.587Z,100474.47
2023-04-30T16:56:28.466Z,100469.91
2023-04-30T16:58:56.422Z,100473.47
2023-04-30T17:01:24.470Z,100464.75
2023-04-30T17:03:52.329Z,100455.88
2023-04-30T17:06:20.130Z,100461.81
2023-04-30T17:08:48.117Z,100467.13
2023-04-30T17:11:19.085Z,100466.47
2023-04-30T17:13:47.126Z,100463.28
2023-04-30T17:16:14.888Z,100466.72
2023-04-30T17:18:42.676Z,100463.28
2023-04-30T17:21:10.449Z,100466.97
2023-04-30T17:23:38.250Z,100468.91
2023-04-30T17:26:06.264Z,100468.91
2023-04-30T17:28:33.974Z,100466.34
2023-04-30T17:31:07.099Z,100461.91
2023-04-30T17:33:35.312Z,100466.19
2023-04-30T17:36:03.161Z,100468.75
2023-04-30T17:38:30.882Z,100473.31
2023-04-30T17:40:58.636Z,100476.00
2023-04-30T17:43:26.321Z,100469.25
2023-04-30T17:45:56.054Z,100475.63
2023-04-30T17:48:23.836Z,100478.44
2023-04-30T17:50:51.734Z,100488.50
2023-04-30T17:53:19.485Z,100469.44
2023-04-30T17:55:47.313Z,100483.06
2023-04-30T17:58:15.079Z,100474.31
2023-04-30T18:00:43.504Z,100475.66
2023-04-30T18:03:11.496Z,100471.34
2023-04-30T18:05:39.592Z,100473.44
2023-04-30T18:08:07.392Z,100472.66
2023-04-30T18:10:35.153Z,100480.22
2023-04-30T18:13:02.905Z,100478.63
2023-04-30T18:15:31.791Z,100482.41
2023-04-30T18:17:59.641Z,100486.31
2023-04-30T18:20:28.009Z,100478.78
2023-04-30T18:22:55.924Z,100493.97
2023-04-30T18:25:23.732Z,100483.66
2023-04-30T18:27:51.595Z,100480.22
2023-04-30T18:30:19.585Z,100488.25
2023-04-30T18:32:47.308Z,100482.06
2023-04-30T18:35:15.182Z,100481.94
2023-04-30T18:37:42.942Z,100480.88
2023-04-30T18:40:11.079Z,100475.81
2023-04-30T18:42:38.866Z,100485.44
2023-04-30T18:45:09.083Z,100486.94
2023-04-30T18:47:36.856Z,100481.31
2023-04-30T18:50:06.440Z,100478.50
2023-04-30T18:52:34.248Z,100486.41
2023-04-30T18:55:01.996Z,100492.22
2023-04-30T18:57:29.870Z,100497.25
2023-04-30T18:59:57.858Z,100490.66
2023-04-30T19:02:26.237Z,100484.38
2023-04-30T19:04:54.658Z,100499.44
2023-04-30T19:07:22.390Z,100492.63
2023-04-30T19:09:51.817Z,100499.00
2023-04-30T19:12:19.623Z,100492.09
2023-04-30T19:14:47.358Z,100501.31
2023-04-30T19:17:15.256Z,100498.84
2023-04-30T19:19:43.468Z,100501.84
2023-04-30T19:22:11.773Z,100499.66
2023-04-30T19:24:42.327Z,100504.06
2023-04-30T19:27:10.570Z,100496.19
2023-04-30T19:29:39.651Z,100503.59
2023-04-30T19:32:07.844Z,100509.00
2023-04-30T19:34:38.608Z,100499.00
2023-04-30T19:37:07.098Z,100515.63
2023-04-30T19:39:36.610Z,100521.41
2023-04-30T19:42:10.133Z,100517.28
2023-04-30T19:44:38.572Z,100515.16
2023-04-30T19:47:06.863Z,100516.31
2023-04-30T19:49:35.244Z,100514.09
2023-04-30T19:52:08.104Z,100511.91
2023-04-30T19:54:35.983Z,100508.53
2023-04-30T19:57:07.028Z,100509.69
2023-04-30T19:59:35.132Z,100508.34
2023-04-30T20:02:03.496Z,100504.22
2023-04-30T20:04:34.793Z,100514.13
2023-04-30T20:07:05.799Z,100506.69
2023-04-30T20:09:34.068Z,100507.66
2023-04-30T20:12:03.683Z,100509.19
2023-04-30T20:14:31.739Z,100513.53
2023-04-30T20:17:01.479Z,100508.31
2023-04-30T20:19:29.702Z,100511.19
2023-04-30T20:21:58.245Z,100511.41
2023-04-30T20:24:26.305Z,100504.44
2023-04-30T20:26:54.358Z,100502.88
2023-04-30T20:29:23.317Z,100508.63
2023-04-30T20:31:52.091Z,100502.56
2023-04-30T20:34:20.146Z,100502.84
2023-04-30T20:36:48.060Z,100495.91
2023-04-30T20:39:16.259Z,100493.59
2023-04-30T20:41:48.108Z,100505.22
2023-04-30T20:44:16.076Z,100504.63
2023-04-30T20:46:46.815Z,100501.28
2023-04-30T20:49:14.900Z,100502.47
2023-04-30T20:51:43.105Z,100488.72
2023-04-30T20:54:13.278Z,100500.06
2023-04-30T20:56:46.800Z,100503.09
2023-04-30T20:59:14.985Z,100499.94
2023-04-30T21:01:43.029Z,100490.16
2023-04-30T21:04:11.267Z,100478.47
2023-04-30T21:06:39.106Z,100490.84
2023-04-30T21:09:10.694Z,100499.00
2023-04-30T21:11:39.275Z,100491.09
2023-04-30T21:14:07.136Z,100494.00
2023-04-30T21:16:35.930Z,100491.53
2023-04-30T21:19:03.975Z,100495.25
2023-04-30T21:21:32.286Z,100498.28
2023-04-30T21:24:05.269Z,100492.22
2023-04-30T21:26:33.375Z,100487.22
2023-04-30T21:29:02.934Z,100477.94
2023-04-30T21:31:31.092Z,100480.88
2023-04-30T21:33:59.281Z,100477.16
2023-04-30T21:36:29.165Z,100481.84
2023-04-30T21:38:59.540Z,100478.47
2023-04-30T21:41:28.361Z,100476.88
2023-04-30T21:43:56.778Z,100483.56
2023-04-30T21:46:25.608Z,100486.50
2023-04-30T21:48:54.009Z,100467.53
2023-04-30T21:51:22.317Z,100474.78
2023-04-30T21:53:53.466Z,100474.19
2023-04-30T21:56:22.069Z,100473.47
2023-04-30T21:58:50.717Z,100473.72
2023-04-30T22:01:19.851Z,100471.03
2023-04-30T22:03:47.751Z,100470.34
2023-04-30T22:06:15.785Z,100467.75
2023-04-30T22:08:47.486Z,100469.72
2023-04-30T22:11:15.677Z,100465.53
2023-04-30T22:13:46.453Z,100453.81
2023-04-30T22:16:14.660Z,100465.34
2023-04-30T22:18:42.640Z,100462.88
2023-04-30T22:21:10.654Z,100454.28
2023-04-30T22:23:39.305Z,100452.66
2023-04-30T22:26:11.410Z,100455.56
2023-04-30T22:28:39.472Z,100456.69
2023-04-30T22:31:07.576Z,100451.47
2023-04-30T22:33:37.173Z,100439.22
2023-04-30T22:36:06.197Z,100437.78
2023-04-30T22:38:35.396Z,100437.97
2023-04-30T22:41:04.780Z,100438.72
2023-04-30T22:43:33.406Z,100438.88
2023-04-30T22:46:02.217Z,100435.44
2023-04-30T22:48:34.328Z,100424.22
2023-04-30T22:51:03.333Z,100429.53
2023-04-30T22:53:33.598Z,100425.28
2023-04-30T22:56:01.773Z,100427.09
2023-04-30T22:58:29.736Z,100433.63
2023-04-30T23:00:58.397Z,100434.72
2023-04-30T23:03:27.079Z,100425.19
2023-04-30T23:05:55.528Z,100427.31
2023-04-30T23:08:23.731Z,100432.66
2023-04-30T23:10:53.047Z,100424.09
2023-04-30T23:13:20.754Z,100427.72
2023-04-30T23:15:48.855Z,100416.38
2023-04-30T23:18:17.706Z,100420.81
2023-04-30T23:20:45.805Z,100414.75
2023-04-30T23:23:13.541Z,100432.34
2023-04-30T23:25:41.402Z,100420.69
2023-04-30T23:28:09.138Z,100422.41
2023-04-30T23:30:39.678Z,100412.34
2023-04-30T23:33:07.616Z,100423.22
2023-04-30T23:35:35.424Z,100415.00
2023-04-30T23:38:03.941Z,100408.66
2023-04-30T23:40:31.681Z,100410.22
2023-04-30T23:42:59.387Z,100397.00
2023-04-30T23:45:27.065Z,100404.88
2023-04-30T23:47:54.959Z,100402.19
2023-04-30T23:50:22.786Z,100410.22
2023-04-30T23:52:51.038Z,100398.91
2023-04-30T23:55:19.014Z,100397.47
2023-04-30T23:57:46.848Z,100400.28
